sensor_id;sensor_type;location;lat;lon;timestamp;P1;durP1;ratioP1;P2;durP2;ratioP2
6785;SDS011;3430;51.192;6.048;2022-11-15T00:02:04;7.73;;;5.07;;
6785;SDS011;3430;51.192;6.048;2022-11-15T00:04:29;6.40;;;4.60;;
6785;SDS011;3430;51.192;6.048;2022-11-15T00:06:55;6.03;;;4.57;;
6785;SDS011;3430;51.192;6.048;2022-11-15T00:09:20;5.30;;;4.50;;
6785;SDS011;3430;51.192;6.048;2022-11-15T00:11:46;5.67;;;4.80;;
6785;SDS011;3430;51.192;6.048;2022-11-15T00:14:11;7.83;;;5.20;;
6785;SDS011;3430;51.192;6.048;2022-11-15T00:16:36;7.73;;;5.50;;
6785;SDS011;3430;51.192;6.048;2022-11-15T00:19:02;5.47;;;4.83;;
6785;SDS011;3430;51.192;6.048;2022-11-15T00:21:27;6.13;;;5.03;;
6785;SDS011;3430;51.192;6.048;2022-11-15T00:23:53;6.30;;;4.13;;
6785;SDS011;3430;51.192;6.048;2022-11-15T00:26:18;7.90;;;4.93;;
6785;SDS011;3430;51.192;6.048;2022-11-15T00:28:43;6.33;;;5.20;;
6785;SDS011;3430;51.192;6.048;2022-11-15T00:31:11;5.70;;;4.47;;
6785;SDS011;3430;51.192;6.048;2022-11-15T00:33:36;5.17;;;4.33;;
6785;SDS011;3430;51.192;6.048;2022-11-15T00:36:06;4.90;;;4.50;;
6785;SDS011;3430;51.192;6.048;2022-11-15T00:38:32;7.53;;;5.40;;
6785;SDS011;3430;51.192;6.048;2022-11-15T00:40:57;5.70;;;4.83;;
6785;SDS011;3430;51.192;6.048;2022-11-15T00:43:23;5.80;;;4.73;;
6785;SDS011;3430;51.192;6.048;2022-11-15T00:45:48;6.07;;;4.43;;
6785;SDS011;3430;51.192;6.048;2022-11-15T00:48:13;6.33;;;5.43;;
6785;SDS011;3430;51.192;6.048;2022-11-15T00:50:39;6.27;;;4.67;;
6785;SDS011;3430;51.192;6.048;2022-11-15T00:53:04;5.80;;;4.63;;
6785;SDS011;3430;51.192;6.048;2022-11-15T00:55:29;6.37;;;4.30;;
6785;SDS011;3430;51.192;6.048;2022-11-15T00:57:55;6.57;;;4.57;;
6785;SDS011;3430;51.192;6.048;2022-11-15T01:00:20;7.60;;;5.13;;
6785;SDS011;3430;51.192;6.048;2022-11-15T01:02:45;6.23;;;4.33;;
6785;SDS011;3430;51.192;6.048;2022-11-15T01:05:11;6.37;;;4.63;;
6785;SDS011;3430;51.192;6.048;2022-11-15T01:07:36;5.30;;;4.07;;
6785;SDS011;3430;51.192;6.048;2022-11-15T01:10:02;5.83;;;4.73;;
6785;SDS011;3430;51.192;6.048;2022-11-15T01:12:27;6.93;;;4.47;;
6785;SDS011;3430;51.192;6.048;2022-11-15T01:14:52;6.80;;;4.57;;
6785;SDS011;3430;51.192;6.048;2022-11-15T01:17:18;5.93;;;4.77;;
6785;SDS011;3430;51.192;6.048;2022-11-15T01:19:43;6.40;;;4.43;;
6785;SDS011;3430;51.192;6.048;2022-11-15T01:22:08;5.20;;;4.70;;
6785;SDS011;3430;51.192;6.048;2022-11-15T01:24:33;5.87;;;4.63;;
6785;SDS011;3430;51.192;6.048;2022-11-15T01:26:59;5.13;;;4.30;;
6785;SDS011;3430;51.192;6.048;2022-11-15T01:29:24;7.13;;;4.60;;
6785;SDS011;3430;51.192;6.048;2022-11-15T01:31:49;5.80;;;4.93;;
6785;SDS011;3430;51.192;6.048;2022-11-15T01:34:15;5.00;;;4.50;;
6785;SDS011;3430;51.192;6.048;2022-11-15T01:36:40;5.50;;;4.90;;
6785;SDS011;3430;51.192;6.048;2022-11-15T01:39:05;6.33;;;4.90;;
6785;SDS011;3430;51.192;6.048;2022-11-15T01:41:31;4.97;;;4.50;;
6785;SDS011;3430;51.192;6.048;2022-11-15T01:44:30;7.00;;;5.37;;
6785;SDS011;3430;51.192;6.048;2022-11-15T01:46:43;7.33;;;5.07;;
6785;SDS011;3430;51.192;6.048;2022-11-15T01:49:13;7.30;;;4.83;;
6785;SDS011;3430;51.192;6.048;2022-11-15T01:51:39;7.73;;;4.77;;
6785;SDS011;3430;51.192;6.048;2022-11-15T01:54:06;7.03;;;4.53;;
6785;SDS011;3430;51.192;6.048;2022-11-15T01:56:33;8.53;;;4.67;;
6785;SDS011;3430;51.192;6.048;2022-11-15T01:59:02;5.83;;;4.67;;
6785;SDS011;3430;51.192;6.048;2022-11-15T02:01:28;6.43;;;5.03;;
6785;SDS011;3430;51.192;6.048;2022-11-15T02:03:59;5.03;;;4.33;;
6785;SDS011;3430;51.192;6.048;2022-11-15T02:06:24;5.80;;;4.77;;
6785;SDS011;3430;51.192;6.048;2022-11-15T02:08:50;5.07;;;4.07;;
6785;SDS011;3430;51.192;6.048;2022-11-15T02:11:15;6.17;;;4.57;;
6785;SDS011;3430;51.192;6.048;2022-11-15T02:13:41;4.90;;;4.20;;
6785;SDS011;3430;51.192;6.048;2022-11-15T02:18:52;7.10;;;4.47;;
6785;SDS011;3430;51.192;6.048;2022-11-15T02:26:28;7.20;;;4.33;;
6785;SDS011;3430;51.192;6.048;2022-11-15T02:29:02;6.77;;;4.60;;
6785;SDS011;3430;51.192;6.048;2022-11-15T02:31:35;6.50;;;4.70;;
6785;SDS011;3430;51.192;6.048;2022-11-15T02:41:49;6.23;;;4.73;;
6785;SDS011;3430;51.192;6.048;2022-11-15T02:44:26;5.23;;;4.27;;
6785;SDS011;3430;51.192;6.048;2022-11-15T02:47:02;6.67;;;4.27;;
6785;SDS011;3430;51.192;6.048;2022-11-15T02:49:38;6.67;;;4.30;;
6785;SDS011;3430;51.192;6.048;2022-11-15T02:52:04;6.37;;;4.47;;
6785;SDS011;3430;51.192;6.048;2022-11-15T02:54:30;5.70;;;4.50;;
6785;SDS011;3430;51.192;6.048;2022-11-15T02:56:59;6.03;;;4.90;;
6785;SDS011;3430;51.192;6.048;2022-11-15T02:59:30;6.17;;;4.87;;
6785;SDS011;3430;51.192;6.048;2022-11-15T03:07:23;6.60;;;4.60;;
6785;SDS011;3430;51.192;6.048;2022-11-15T03:09:52;5.57;;;4.40;;
6785;SDS011;3430;51.192;6.048;2022-11-15T03:14:54;5.37;;;3.97;;
6785;SDS011;3430;51.192;6.048;2022-11-15T03:19:51;5.70;;;4.33;;
6785;SDS011;3430;51.192;6.048;2022-11-15T03:22:20;5.13;;;4.47;;
6785;SDS011;3430;51.192;6.048;2022-11-15T03:24:53;9.40;;;4.83;;
6785;SDS011;3430;51.192;6.048;2022-11-15T03:27:20;5.00;;;4.50;;
6785;SDS011;3430;51.192;6.048;2022-11-15T03:29:47;6.33;;;5.10;;
6785;SDS011;3430;51.192;6.048;2022-11-15T03:32:16;5.63;;;4.30;;
6785;SDS011;3430;51.192;6.048;2022-11-15T03:34:45;4.60;;;4.17;;
6785;SDS011;3430;51.192;6.048;2022-11-15T03:37:13;4.67;;;4.17;;
6785;SDS011;3430;51.192;6.048;2022-11-15T03:39:39;6.33;;;4.77;;
6785;SDS011;3430;51.192;6.048;2022-11-15T03:42:18;5.47;;;4.53;;
6785;SDS011;3430;51.192;6.048;2022-11-15T03:45:47;4.83;;;4.20;;
6785;SDS011;3430;51.192;6.048;2022-11-15T03:47:42;6.77;;;4.57;;
6785;SDS011;3430;51.192;6.048;2022-11-15T03:50:13;6.53;;;4.17;;
6785;SDS011;3430;51.192;6.048;2022-11-15T03:52:40;5.17;;;4.30;;
6785;SDS011;3430;51.192;6.048;2022-11-15T03:55:07;5.27;;;3.90;;
6785;SDS011;3430;51.192;6.048;2022-11-15T03:57:32;5.70;;;4.40;;
6785;SDS011;3430;51.192;6.048;2022-11-15T03:59:57;4.30;;;3.90;;
6785;SDS011;3430;51.192;6.048;2022-11-15T04:02:23;5.37;;;3.87;;
6785;SDS011;3430;51.192;6.048;2022-11-15T04:04:48;4.17;;;3.77;;
6785;SDS011;3430;51.192;6.048;2022-11-15T04:07:13;4.47;;;3.90;;
6785;SDS011;3430;51.192;6.048;2022-11-15T04:09:38;5.30;;;4.37;;
6785;SDS011;3430;51.192;6.048;2022-11-15T04:12:23;5.07;;;4.13;;
6785;SDS011;3430;51.192;6.048;2022-11-15T04:14:59;4.30;;;3.87;;
6785;SDS011;3430;51.192;6.048;2022-11-15T04:17:34;5.90;;;4.00;;
6785;SDS011;3430;51.192;6.048;2022-11-15T04:20:00;3.67;;;3.37;;
6785;SDS011;3430;51.192;6.048;2022-11-15T04:22:44;4.20;;;3.80;;
6785;SDS011;3430;51.192;6.048;2022-11-15T04:25:28;5.03;;;4.30;;
6785;SDS011;3430;51.192;6.048;2022-11-15T04:27:58;5.53;;;4.00;;
6785;SDS011;3430;51.192;6.048;2022-11-15T04:30:23;4.37;;;3.60;;
6785;SDS011;3430;51.192;6.048;2022-11-15T04:32:48;4.07;;;3.60;;
6785;SDS011;3430;51.192;6.048;2022-11-15T04:35:14;4.73;;;4.23;;
6785;SDS011;3430;51.192;6.048;2022-11-15T04:37:39;5.17;;;3.77;;
6785;SDS011;3430;51.192;6.048;2022-11-15T04:40:04;4.00;;;3.60;;
6785;SDS011;3430;51.192;6.048;2022-11-15T04:42:30;4.30;;;3.90;;
6785;SDS011;3430;51.192;6.048;2022-11-15T04:44:55;5.10;;;3.63;;
6785;SDS011;3430;51.192;6.048;2022-11-15T04:47:21;5.20;;;3.90;;
6785;SDS011;3430;51.192;6.048;2022-11-15T04:49:46;5.30;;;3.23;;
6785;SDS011;3430;51.192;6.048;2022-11-15T04:52:11;5.27;;;4.13;;
6785;SDS011;3430;51.192;6.048;2022-11-15T04:54:36;4.97;;;3.50;;
6785;SDS011;3430;51.192;6.048;2022-11-15T04:57:02;4.47;;;3.93;;
6785;SDS011;3430;51.192;6.048;2022-11-15T04:59:27;5.70;;;4.10;;
6785;SDS011;3430;51.192;6.048;2022-11-15T05:01:52;4.63;;;3.80;;
6785;SDS011;3430;51.192;6.048;2022-11-15T05:04:17;4.60;;;3.70;;
6785;SDS011;3430;51.192;6.048;2022-11-15T05:06:46;4.83;;;3.90;;
6785;SDS011;3430;51.192;6.048;2022-11-15T05:09:11;3.73;;;3.43;;
6785;SDS011;3430;51.192;6.048;2022-11-15T05:11:38;4.20;;;3.57;;
6785;SDS011;3430;51.192;6.048;2022-11-15T05:14:04;3.97;;;3.53;;
6785;SDS011;3430;51.192;6.048;2022-11-15T05:16:29;3.80;;;3.47;;
6785;SDS011;3430;51.192;6.048;2022-11-15T05:18:54;5.30;;;3.60;;
6785;SDS011;3430;51.192;6.048;2022-11-15T05:21:20;4.00;;;3.60;;
6785;SDS011;3430;51.192;6.048;2022-11-15T05:23:46;6.03;;;3.90;;
6785;SDS011;3430;51.192;6.048;2022-11-15T05:26:11;4.27;;;3.47;;
6785;SDS011;3430;51.192;6.048;2022-11-15T05:28:37;4.20;;;3.57;;
6785;SDS011;3430;51.192;6.048;2022-11-15T05:31:03;5.40;;;3.60;;
6785;SDS011;3430;51.192;6.048;2022-11-15T05:33:29;3.97;;;3.20;;
6785;SDS011;3430;51.192;6.048;2022-11-15T05:35:54;6.63;;;3.80;;
6785;SDS011;3430;51.192;6.048;2022-11-15T05:38:23;4.40;;;4.00;;
6785;SDS011;3430;51.192;6.048;2022-11-15T05:40:48;4.07;;;3.33;;
6785;SDS011;3430;51.192;6.048;2022-11-15T05:43:13;3.43;;;3.13;;
6785;SDS011;3430;51.192;6.048;2022-11-15T05:45:39;3.67;;;3.30;;
6785;SDS011;3430;51.192;6.048;2022-11-15T05:48:06;5.00;;;3.20;;
6785;SDS011;3430;51.192;6.048;2022-11-15T05:50:33;3.97;;;3.57;;
6785;SDS011;3430;51.192;6.048;2022-11-15T05:53:00;3.27;;;2.97;;
6785;SDS011;3430;51.192;6.048;2022-11-15T05:55:26;3.03;;;2.73;;
6785;SDS011;3430;51.192;6.048;2022-11-15T05:57:51;3.40;;;3.10;;
6785;SDS011;3430;51.192;6.048;2022-11-15T06:00:17;3.50;;;3.00;;
6785;SDS011;3430;51.192;6.048;2022-11-15T06:02:42;2.87;;;2.60;;
6785;SDS011;3430;51.192;6.048;2022-11-15T06:05:07;2.93;;;2.67;;
6785;SDS011;3430;51.192;6.048;2022-11-15T06:07:33;3.57;;;2.37;;
6785;SDS011;3430;51.192;6.048;2022-11-15T06:09:58;4.00;;;2.50;;
6785;SDS011;3430;51.192;6.048;2022-11-15T06:12:23;3.80;;;2.40;;
6785;SDS011;3430;51.192;6.048;2022-11-15T06:14:49;3.00;;;2.20;;
6785;SDS011;3430;51.192;6.048;2022-11-15T06:17:14;3.13;;;2.40;;
6785;SDS011;3430;51.192;6.048;2022-11-15T06:19:39;2.37;;;2.17;;
6785;SDS011;3430;51.192;6.048;2022-11-15T06:22:05;2.50;;;2.10;;
6785;SDS011;3430;51.192;6.048;2022-11-15T06:24:30;2.60;;;2.40;;
6785;SDS011;3430;51.192;6.048;2022-11-15T06:26:55;3.67;;;2.30;;
6785;SDS011;3430;51.192;6.048;2022-11-15T06:29:22;3.90;;;2.23;;
6785;SDS011;3430;51.192;6.048;2022-11-15T06:31:47;2.20;;;2.00;;
6785;SDS011;3430;51.192;6.048;2022-11-15T06:34:13;2.73;;;2.40;;
6785;SDS011;3430;51.192;6.048;2022-11-15T06:36:38;2.67;;;2.30;;
6785;SDS011;3430;51.192;6.048;2022-11-15T06:39:04;2.57;;;2.20;;
6785;SDS011;3430;51.192;6.048;2022-11-15T06:41:29;3.60;;;2.20;;
6785;SDS011;3430;51.192;6.048;2022-11-15T06:43:55;3.53;;;2.53;;
6785;SDS011;3430;51.192;6.048;2022-11-15T06:46:21;2.73;;;2.30;;
6785;SDS011;3430;51.192;6.048;2022-11-15T06:48:46;2.50;;;2.30;;
6785;SDS011;3430;51.192;6.048;2022-11-15T06:51:11;2.23;;;2.00;;
6785;SDS011;3430;51.192;6.048;2022-11-15T06:53:37;4.57;;;2.37;;
6785;SDS011;3430;51.192;6.048;2022-11-15T06:56:05;2.60;;;2.40;;
6785;SDS011;3430;51.192;6.048;2022-11-15T06:58:31;7.17;;;2.17;;
6785;SDS011;3430;51.192;6.048;2022-11-15T07:01:04;1.90;;;1.80;;
6785;SDS011;3430;51.192;6.048;2022-11-15T07:03:30;2.43;;;2.07;;
6785;SDS011;3430;51.192;6.048;2022-11-15T07:05:56;2.50;;;2.00;;
6785;SDS011;3430;51.192;6.048;2022-11-15T07:08:21;3.40;;;2.20;;
6785;SDS011;3430;51.192;6.048;2022-11-15T07:10:46;3.10;;;2.00;;
6785;SDS011;3430;51.192;6.048;2022-11-15T07:13:12;2.43;;;1.57;;
6785;SDS011;3430;51.192;6.048;2022-11-15T07:15:37;2.00;;;1.80;;
6785;SDS011;3430;51.192;6.048;2022-11-15T07:18:02;1.73;;;1.60;;
6785;SDS011;3430;51.192;6.048;2022-11-15T07:20:28;2.20;;;1.70;;
6785;SDS011;3430;51.192;6.048;2022-11-15T07:23:03;1.83;;;1.73;;
6785;SDS011;3430;51.192;6.048;2022-11-15T07:25:31;1.70;;;1.60;;
6785;SDS011;3430;51.192;6.048;2022-11-15T07:27:57;3.17;;;1.70;;
6785;SDS011;3430;51.192;6.048;2022-11-15T07:30:23;4.13;;;1.83;;
6785;SDS011;3430;51.192;6.048;2022-11-15T07:32:52;2.70;;;2.07;;
6785;SDS011;3430;51.192;6.048;2022-11-15T07:35:17;2.60;;;1.60;;
6785;SDS011;3430;51.192;6.048;2022-11-15T07:37:43;2.97;;;1.63;;
6785;SDS011;3430;51.192;6.048;2022-11-15T07:40:08;2.10;;;1.90;;
6785;SDS011;3430;51.192;6.048;2022-11-15T07:42:34;3.10;;;1.73;;
6785;SDS011;3430;51.192;6.048;2022-11-15T07:45:17;3.53;;;1.83;;
6785;SDS011;3430;51.192;6.048;2022-11-15T07:47:45;1.93;;;1.60;;
6785;SDS011;3430;51.192;6.048;2022-11-15T07:50:10;1.80;;;1.70;;
6785;SDS011;3430;51.192;6.048;2022-11-15T07:52:35;2.23;;;1.80;;
6785;SDS011;3430;51.192;6.048;2022-11-15T07:55:01;2.37;;;1.70;;
6785;SDS011;3430;51.192;6.048;2022-11-15T07:57:26;1.93;;;1.80;;
6785;SDS011;3430;51.192;6.048;2022-11-15T07:59:51;1.97;;;1.80;;
6785;SDS011;3430;51.192;6.048;2022-11-15T08:02:16;2.07;;;1.97;;
6785;SDS011;3430;51.192;6.048;2022-11-15T08:04:42;4.60;;;1.97;;
6785;SDS011;3430;51.192;6.048;2022-11-15T08:07:08;4.27;;;2.30;;
6785;SDS011;3430;51.192;6.048;2022-11-15T08:09:34;3.20;;;2.20;;
6785;SDS011;3430;51.192;6.048;2022-11-15T08:11:59;2.70;;;1.83;;
6785;SDS011;3430;51.192;6.048;2022-11-15T08:14:24;2.70;;;1.93;;
6785;SDS011;3430;51.192;6.048;2022-11-15T08:16:49;2.07;;;1.80;;
6785;SDS011;3430;51.192;6.048;2022-11-15T08:19:15;2.87;;;2.00;;
6785;SDS011;3430;51.192;6.048;2022-11-15T08:21:40;2.40;;;2.20;;
6785;SDS011;3430;51.192;6.048;2022-11-15T08:24:05;1.97;;;1.53;;
6785;SDS011;3430;51.192;6.048;2022-11-15T08:26:31;2.13;;;1.93;;
6785;SDS011;3430;51.192;6.048;2022-11-15T08:28:56;3.57;;;1.70;;
6785;SDS011;3430;51.192;6.048;2022-11-15T08:31:21;8.50;;;1.60;;
6785;SDS011;3430;51.192;6.048;2022-11-15T08:33:47;2.30;;;1.70;;
6785;SDS011;3430;51.192;6.048;2022-11-15T08:36:13;1.67;;;1.53;;
6785;SDS011;3430;51.192;6.048;2022-11-15T08:38:39;2.60;;;2.10;;
6785;SDS011;3430;51.192;6.048;2022-11-15T08:41:04;1.57;;;1.47;;
6785;SDS011;3430;51.192;6.048;2022-11-15T08:43:31;2.07;;;1.90;;
6785;SDS011;3430;51.192;6.048;2022-11-15T08:45:56;1.70;;;1.50;;
6785;SDS011;3430;51.192;6.048;2022-11-15T08:48:22;1.90;;;1.67;;
6785;SDS011;3430;51.192;6.048;2022-11-15T08:50:47;3.83;;;1.50;;
6785;SDS011;3430;51.192;6.048;2022-11-15T08:53:12;2.00;;;1.60;;
6785;SDS011;3430;51.192;6.048;2022-11-15T08:55:38;2.50;;;1.53;;
6785;SDS011;3430;51.192;6.048;2022-11-15T08:58:04;2.00;;;1.80;;
6785;SDS011;3430;51.192;6.048;2022-11-15T09:00:29;1.60;;;1.50;;
6785;SDS011;3430;51.192;6.048;2022-11-15T09:02:54;1.57;;;1.47;;
6785;SDS011;3430;51.192;6.048;2022-11-15T09:05:20;2.70;;;1.63;;
6785;SDS011;3430;51.192;6.048;2022-11-15T09:07:45;1.90;;;1.70;;
6785;SDS011;3430;51.192;6.048;2022-11-15T09:10:10;1.90;;;1.60;;
6785;SDS011;3430;51.192;6.048;2022-11-15T09:12:36;2.77;;;1.60;;
6785;SDS011;3430;51.192;6.048;2022-11-15T09:15:01;2.93;;;1.77;;
6785;SDS011;3430;51.192;6.048;2022-11-15T09:17:26;2.57;;;1.90;;
6785;SDS011;3430;51.192;6.048;2022-11-15T09:19:52;1.97;;;1.77;;
6785;SDS011;3430;51.192;6.048;2022-11-15T09:22:17;1.60;;;1.50;;
6785;SDS011;3430;51.192;6.048;2022-11-15T09:24:43;3.03;;;1.73;;
6785;SDS011;3430;51.192;6.048;2022-11-15T09:27:08;2.17;;;1.60;;
6785;SDS011;3430;51.192;6.048;2022-11-15T09:29:33;2.13;;;1.70;;
6785;SDS011;3430;51.192;6.048;2022-11-15T09:31:59;1.60;;;1.50;;
6785;SDS011;3430;51.192;6.048;2022-11-15T09:34:24;2.67;;;1.63;;
6785;SDS011;3430;51.192;6.048;2022-11-15T09:36:49;2.30;;;1.80;;
6785;SDS011;3430;51.192;6.048;2022-11-15T09:39:15;2.47;;;1.70;;
6785;SDS011;3430;51.192;6.048;2022-11-15T09:49:35;2.57;;;1.70;;
6785;SDS011;3430;51.192;6.048;2022-11-15T09:52:01;2.30;;;1.80;;
6785;SDS011;3430;51.192;6.048;2022-11-15T09:54:28;1.83;;;1.50;;
6785;SDS011;3430;51.192;6.048;2022-11-15T09:56:55;1.80;;;1.60;;
6785;SDS011;3430;51.192;6.048;2022-11-15T10:04:26;3.70;;;1.57;;
6785;SDS011;3430;51.192;6.048;2022-11-15T10:07:40;1.63;;;1.50;;
6785;SDS011;3430;51.192;6.048;2022-11-15T10:12:22;1.93;;;1.73;;
6785;SDS011;3430;51.192;6.048;2022-11-15T10:14:48;1.70;;;1.60;;
6785;SDS011;3430;51.192;6.048;2022-11-15T10:19:47;1.93;;;1.50;;
6785;SDS011;3430;51.192;6.048;2022-11-15T10:22:27;3.23;;;1.70;;
6785;SDS011;3430;51.192;6.048;2022-11-15T10:27:33;1.73;;;1.63;;
6785;SDS011;3430;51.192;6.048;2022-11-15T10:29:59;1.87;;;1.70;;
6785;SDS011;3430;51.192;6.048;2022-11-15T10:32:24;1.60;;;1.50;;
6785;SDS011;3430;51.192;6.048;2022-11-15T10:34:50;2.03;;;1.73;;
6785;SDS011;3430;51.192;6.048;2022-11-15T10:37:37;1.77;;;1.50;;
6785;SDS011;3430;51.192;6.048;2022-11-15T10:40:02;2.80;;;1.70;;
6785;SDS011;3430;51.192;6.048;2022-11-15T10:42:28;1.93;;;1.70;;
6785;SDS011;3430;51.192;6.048;2022-11-15T10:44:53;1.77;;;1.67;;
6785;SDS011;3430;51.192;6.048;2022-11-15T10:50:48;1.57;;;1.47;;
6785;SDS011;3430;51.192;6.048;2022-11-15T10:52:44;2.90;;;1.67;;
6785;SDS011;3430;51.192;6.048;2022-11-15T10:57:47;4.33;;;2.03;;
6785;SDS011;3430;51.192;6.048;2022-11-15T11:02:40;1.97;;;1.77;;
6785;SDS011;3430;51.192;6.048;2022-11-15T11:08:36;3.27;;;1.73;;
6785;SDS011;3430;51.192;6.048;2022-11-15T11:10:37;2.80;;;1.70;;
6785;SDS011;3430;51.192;6.048;2022-11-15T11:13:19;2.97;;;1.90;;
6785;SDS011;3430;51.192;6.048;2022-11-15T11:15:46;2.30;;;1.90;;
6785;SDS011;3430;51.192;6.048;2022-11-15T11:20:58;2.00;;;1.80;;
6785;SDS011;3430;51.192;6.048;2022-11-15T11:23:36;1.73;;;1.63;;
6785;SDS011;3430;51.192;6.048;2022-11-15T11:36:02;3.83;;;1.70;;
6785;SDS011;3430;51.192;6.048;2022-11-15T11:38:34;2.30;;;1.77;;
6785;SDS011;3430;51.192;6.048;2022-11-15T11:49:10;4.17;;;2.13;;
6785;SDS011;3430;51.192;6.048;2022-11-15T11:54:24;2.40;;;2.10;;
6785;SDS011;3430;51.192;6.048;2022-11-15T11:56:50;3.53;;;2.27;;
6785;SDS011;3430;51.192;6.048;2022-11-15T11:59:37;2.10;;;1.90;;
6785;SDS011;3430;51.192;6.048;2022-11-15T12:02:21;2.77;;;2.10;;
6785;SDS011;3430;51.192;6.048;2022-11-15T12:04:50;2.63;;;2.00;;
6785;SDS011;3430;51.192;6.048;2022-11-15T12:07:24;3.70;;;1.60;;
6785;SDS011;3430;51.192;6.048;2022-11-15T12:10:33;1.93;;;1.77;;
6785;SDS011;3430;51.192;6.048;2022-11-15T12:12:53;2.07;;;1.80;;
6785;SDS011;3430;51.192;6.048;2022-11-15T12:15:24;4.57;;;2.10;;
6785;SDS011;3430;51.192;6.048;2022-11-15T12:17:51;2.27;;;1.90;;
6785;SDS011;3430;51.192;6.048;2022-11-15T12:20:18;2.23;;;1.90;;
6785;SDS011;3430;51.192;6.048;2022-11-15T12:30:15;3.07;;;1.80;;
6785;SDS011;3430;51.192;6.048;2022-11-15T12:33:00;2.07;;;1.70;;
6785;SDS011;3430;51.192;6.048;2022-11-15T12:37:57;1.70;;;1.60;;
6785;SDS011;3430;51.192;6.048;2022-11-15T12:40:32;3.43;;;2.00;;
6785;SDS011;3430;51.192;6.048;2022-11-15T12:45:31;2.33;;;1.80;;
6785;SDS011;3430;51.192;6.048;2022-11-15T12:58:28;2.43;;;1.60;;
6785;SDS011;3430;51.192;6.048;2022-11-15T13:01:06;1.80;;;1.60;;
6785;SDS011;3430;51.192;6.048;2022-11-15T13:03:31;1.60;;;1.50;;
6785;SDS011;3430;51.192;6.048;2022-11-15T13:05:57;4.63;;;1.60;;
6785;SDS011;3430;51.192;6.048;2022-11-15T13:11:41;1.70;;;1.60;;
6785;SDS011;3430;51.192;6.048;2022-11-15T13:16:56;2.57;;;2.20;;
6785;SDS011;3430;51.192;6.048;2022-11-15T13:19:23;2.30;;;1.90;;
6785;SDS011;3430;51.192;6.048;2022-11-15T13:21:49;4.13;;;2.10;;
6785;SDS011;3430;51.192;6.048;2022-11-15T13:24:33;3.20;;;1.83;;
6785;SDS011;3430;51.192;6.048;2022-11-15T13:26:58;2.57;;;1.80;;
6785;SDS011;3430;51.192;6.048;2022-11-15T13:29:23;2.20;;;1.93;;
6785;SDS011;3430;51.192;6.048;2022-11-15T13:31:49;2.50;;;1.73;;
6785;SDS011;3430;51.192;6.048;2022-11-15T13:34:24;2.40;;;1.83;;
6785;SDS011;3430;51.192;6.048;2022-11-15T13:36:50;1.93;;;1.80;;
6785;SDS011;3430;51.192;6.048;2022-11-15T13:39:28;2.00;;;1.63;;
6785;SDS011;3430;51.192;6.048;2022-11-15T13:41:54;2.63;;;1.97;;
6785;SDS011;3430;51.192;6.048;2022-11-15T13:44:24;2.00;;;1.70;;
6785;SDS011;3430;51.192;6.048;2022-11-15T13:47:00;2.30;;;2.10;;
6785;SDS011;3430;51.192;6.048;2022-11-15T13:49:29;2.53;;;2.27;;
6785;SDS011;3430;51.192;6.048;2022-11-15T13:51:54;3.13;;;2.00;;
6785;SDS011;3430;51.192;6.048;2022-11-15T13:54:30;2.90;;;2.10;;
6785;SDS011;3430;51.192;6.048;2022-11-15T13:56:57;3.80;;;1.97;;
6785;SDS011;3430;51.192;6.048;2022-11-15T13:59:37;2.10;;;1.90;;
6785;SDS011;3430;51.192;6.048;2022-11-15T14:02:11;2.53;;;1.80;;
6785;SDS011;3430;51.192;6.048;2022-11-15T14:04:38;2.03;;;1.83;;
6785;SDS011;3430;51.192;6.048;2022-11-15T14:07:03;2.67;;;2.10;;
6785;SDS011;3430;51.192;6.048;2022-11-15T14:11:58;2.27;;;2.07;;
6785;SDS011;3430;51.192;6.048;2022-11-15T14:14:24;1.90;;;1.70;;
6785;SDS011;3430;51.192;6.048;2022-11-15T14:16:57;1.97;;;1.77;;
6785;SDS011;3430;51.192;6.048;2022-11-15T14:24:31;3.67;;;2.10;;
6785;SDS011;3430;51.192;6.048;2022-11-15T14:26:57;2.33;;;1.87;;
6785;SDS011;3430;51.192;6.048;2022-11-15T14:29:26;2.00;;;1.80;;
6785;SDS011;3430;51.192;6.048;2022-11-15T14:31:52;3.03;;;2.10;;
6785;SDS011;3430;51.192;6.048;2022-11-15T14:34:17;2.33;;;2.13;;
6785;SDS011;3430;51.192;6.048;2022-11-15T14:36:42;2.20;;;2.00;;
6785;SDS011;3430;51.192;6.048;2022-11-15T14:39:08;3.57;;;2.37;;
6785;SDS011;3430;51.192;6.048;2022-11-15T14:41:34;5.63;;;2.10;;
6785;SDS011;3430;51.192;6.048;2022-11-15T14:44:03;2.20;;;2.00;;
6785;SDS011;3430;51.192;6.048;2022-11-15T14:46:28;2.13;;;1.93;;
6785;SDS011;3430;51.192;6.048;2022-11-15T14:48:54;3.67;;;2.30;;
6785;SDS011;3430;51.192;6.048;2022-11-15T14:51:19;2.00;;;1.80;;
6785;SDS011;3430;51.192;6.048;2022-11-15T14:53:44;2.63;;;2.30;;
6785;SDS011;3430;51.192;6.048;2022-11-15T14:56:10;4.20;;;2.30;;
6785;SDS011;3430;51.192;6.048;2022-11-15T14:58:35;2.17;;;1.97;;
6785;SDS011;3430;51.192;6.048;2022-11-15T15:01:02;7.17;;;2.03;;
6785;SDS011;3430;51.192;6.048;2022-11-15T15:03:27;2.10;;;1.90;;
6785;SDS011;3430;51.192;6.048;2022-11-15T15:05:53;2.57;;;2.17;;
6785;SDS011;3430;51.192;6.048;2022-11-15T15:08:18;2.43;;;2.23;;
6785;SDS011;3430;51.192;6.048;2022-11-15T15:10:44;3.40;;;2.10;;
6785;SDS011;3430;51.192;6.048;2022-11-15T15:13:15;4.20;;;2.70;;
6785;SDS011;3430;51.192;6.048;2022-11-15T15:15:41;2.27;;;2.07;;
6785;SDS011;3430;51.192;6.048;2022-11-15T15:18:06;6.63;;;2.30;;
6785;SDS011;3430;51.192;6.048;2022-11-15T15:20:34;2.13;;;1.93;;
6785;SDS011;3430;51.192;6.048;2022-11-15T15:22:59;2.80;;;2.20;;
6785;SDS011;3430;51.192;6.048;2022-11-15T15:27:52;1.93;;;1.70;;
6785;SDS011;3430;51.192;6.048;2022-11-15T15:30:17;1.90;;;1.80;;
6785;SDS011;3430;51.192;6.048;2022-11-15T15:32:42;2.80;;;2.00;;
6785;SDS011;3430;51.192;6.048;2022-11-15T15:35:10;2.67;;;1.90;;
6785;SDS011;3430;51.192;6.048;2022-11-15T15:37:36;1.97;;;1.77;;
6785;SDS011;3430;51.192;6.048;2022-11-15T15:40:01;1.83;;;1.60;;
6785;SDS011;3430;51.192;6.048;2022-11-15T15:42:26;2.87;;;1.70;;
6785;SDS011;3430;51.192;6.048;2022-11-15T15:44:52;2.63;;;1.73;;
6785;SDS011;3430;51.192;6.048;2022-11-15T15:47:21;1.97;;;1.67;;
6785;SDS011;3430;51.192;6.048;2022-11-15T15:49:47;2.33;;;1.57;;
6785;SDS011;3430;51.192;6.048;2022-11-15T15:52:13;1.93;;;1.40;;
6785;SDS011;3430;51.192;6.048;2022-11-15T15:54:38;2.83;;;2.20;;
6785;SDS011;3430;51.192;6.048;2022-11-15T15:57:05;3.20;;;1.80;;
6785;SDS011;3430;51.192;6.048;2022-11-15T15:59:30;1.70;;;1.53;;
6785;SDS011;3430;51.192;6.048;2022-11-15T16:01:56;2.23;;;1.70;;
6785;SDS011;3430;51.192;6.048;2022-11-15T16:04:21;1.90;;;1.70;;
6785;SDS011;3430;51.192;6.048;2022-11-15T16:06:46;2.17;;;1.87;;
6785;SDS011;3430;51.192;6.048;2022-11-15T16:09:16;2.27;;;1.67;;
6785;SDS011;3430;51.192;6.048;2022-11-15T16:11:42;3.53;;;1.60;;
6785;SDS011;3430;51.192;6.048;2022-11-15T16:14:07;1.90;;;1.80;;
6785;SDS011;3430;51.192;6.048;2022-11-15T16:16:33;1.60;;;1.50;;
6785;SDS011;3430;51.192;6.048;2022-11-15T16:18:59;3.07;;;1.77;;
6785;SDS011;3430;51.192;6.048;2022-11-15T16:21:26;2.13;;;1.83;;
6785;SDS011;3430;51.192;6.048;2022-11-15T16:23:51;2.03;;;1.80;;
6785;SDS011;3430;51.192;6.048;2022-11-15T16:26:20;2.00;;;1.60;;
6785;SDS011;3430;51.192;6.048;2022-11-15T16:28:46;2.30;;;2.10;;
6785;SDS011;3430;51.192;6.048;2022-11-15T16:31:11;2.13;;;1.90;;
6785;SDS011;3430;51.192;6.048;2022-11-15T16:33:37;2.40;;;2.20;;
6785;SDS011;3430;51.192;6.048;2022-11-15T16:36:03;2.37;;;1.80;;
6785;SDS011;3430;51.192;6.048;2022-11-15T16:38:29;2.27;;;1.73;;
6785;SDS011;3430;51.192;6.048;2022-11-15T16:40:54;2.87;;;2.03;;
6785;SDS011;3430;51.192;6.048;2022-11-15T16:43:19;3.90;;;1.83;;
6785;SDS011;3430;51.192;6.048;2022-11-15T16:45:45;1.73;;;1.60;;
6785;SDS011;3430;51.192;6.048;2022-11-15T16:48:19;2.63;;;2.00;;
6785;SDS011;3430;51.192;6.048;2022-11-15T16:50:45;1.83;;;1.73;;
6785;SDS011;3430;51.192;6.048;2022-11-15T16:53:13;2.23;;;2.03;;
6785;SDS011;3430;51.192;6.048;2022-11-15T16:55:39;1.73;;;1.63;;
6785;SDS011;3430;51.192;6.048;2022-11-15T16:58:04;3.07;;;2.10;;
6785;SDS011;3430;51.192;6.048;2022-11-15T17:00:29;3.40;;;2.10;;
6785;SDS011;3430;51.192;6.048;2022-11-15T17:02:54;6.37;;;2.20;;
6785;SDS011;3430;51.192;6.048;2022-11-15T17:05:21;2.63;;;2.07;;
6785;SDS011;3430;51.192;6.048;2022-11-15T17:07:47;1.77;;;1.67;;
6785;SDS011;3430;51.192;6.048;2022-11-15T17:10:18;2.57;;;2.00;;
6785;SDS011;3430;51.192;6.048;2022-11-15T17:12:43;3.57;;;2.27;;
6785;SDS011;3430;51.192;6.048;2022-11-15T17:15:10;3.10;;;2.10;;
6785;SDS011;3430;51.192;6.048;2022-11-15T17:17:35;2.80;;;2.40;;